Aérodrome :
LOGIN :

S'inscrire | Disclaimer

   EN    FR    IT 

 










Légende :    VFR   VFR Marginal   IFR   IFR Intensif   IFR Très Intensif
Visi : 
Plafond : 
>= 8 km
>= 3000ft
5 à 8 km
1000 à 3000 ft
1500m à 5 km
500 à 1000 ft
800 à 1500m
200 à 500 ft
< 800m
< 200 ft
Symboles :   Orages  Brouillard  Fortes neiges  Fortes précipitations  Vent > 20 kt
SIGMETs :   Divers  Orages  Givrage  Turbulence  Onde Orograph.  Cendres Volcan.







- Altitude de l'aérodrome : 124 ft
- Code IATA : RNS
- Voir les cartes d'approche


LFRN - Rennes

DERNIER METAR :
  • 190730Z AUTO 35005KT CAVOK 18/13 Q1017 NOSIG

METARs EXPIRÉS :
  • 190700Z AUTO 01006KT 330V030 CAVOK 18/14 Q1017 NOSIG
  • 190630Z AUTO 36005KT CAVOK 17/13 Q1017 NOSIG
  • 190600Z AUTO 35004KT CAVOK 16/13 Q1017 NOSIG
  • 190530Z AUTO 34004KT CAVOK 16/13 Q1017 NOSIG
  • 190500Z AUTO 36005KT CAVOK 16/13 Q1016 NOSIG

TAF TAF LFRN
Valide du 19 à 06h jusqu'au 20 à 06h UTC


190500Z 1906/2006 35005KT CAVOK
BECMG 1909/1912 35010KT
PROB40
TEMPO 1914/1921 SHRA SCT060CB
PROB30
TEMPO 1916/1921 3000 TSRA BKN060CB
BECMG 1922/1924 33005KT
ATIS : +33 2 99 67 72 50
Pas de NOTAMs connus pour ce terrain.
1 SIGMET publié pour la FIR Brest (LFRR) :
 
Orages noyés dans la masse
LFRR SIGMET 2 VALID 190700/190900 LFPW
LFRR BREST FIR/UIR EMBD TS FCST WI N4415 W00445 - N4445 W00715 - N4700 W00330 - N4545 W00215 - N4415 W00445 TOP FL330 MOV NE 15KT NC=



MET'MAP, la Météo Aéronautique d'un coup d'oeil ! - Copyright ORBIFLY Décembre 2007 - Disclaimer

ORBIFLY MET'MAP TEAM :

Programmation & Développement : Alexandra Zaïnal
Conception & Développement : Baudouin d'Aumeries
Co-Programmation & Développement : Marc-Olivier Méhu
Soutien technique & logistique : Manuel Goepfert

Contact : metmap@orbifly.com




SOURCES & CREDITS :

   NOAA